Time;durP1;ratioP1;P1;durP2;ratioP2;P2;SDS_P1;SDS_P2;PMS_P1;PMS_P2;Temp;Humidity;BMP_temperature;BMP_pressure;BME280_temperature;BME280_humidity;BME280_pressure;Samples;Min_cycle;Max_cycle;Signal;HPM_P1;HPM_P2
2022/06/08 00:00:18;;;;;;;6.95;2.15;;;;;;;;;;6245752;23;20012;-70
2022/06/08 00:02:45;;;;;;;4.03;2.10;;;;;;;;;;6245959;23;19996;-69
2022/06/08 00:05:11;;;;;;;5.63;2.17;;;;;;;;;;6232693;23;19999;-69
2022/06/08 00:07:36;;;;;;;8.43;2.58;;;;;;;;;;6244733;23;20106;-68
2022/06/08 00:10:03;;;;;;;4.88;2.42;;;;;;;;;;6242818;23;20477;-68
2022/06/08 00:12:28;;;;;;;5.82;2.30;;;;;;;;;;6245286;23;20004;-68
2022/06/08 00:14:54;;;;;;;4.28;2.10;;;;;;;;;;6245171;23;20008;-68
2022/06/08 00:17:19;;;;;;;4.93;2.58;;;;;;;;;;6245507;23;19992;-68
2022/06/08 00:19:45;;;;;;;5.70;2.30;;;;;;;;;;6245377;23;20000;-68
2022/06/08 00:22:11;;;;;;;9.55;2.47;;;;;;;;;;6245712;23;20010;-68
2022/06/08 00:24:37;;;;;;;6.20;2.35;;;;;;;;;;6245854;23;20079;-68
2022/06/08 00:27:02;;;;;;;3.60;2.20;;;;;;;;;;6245899;23;20023;-68
2022/06/08 00:29:27;;;;;;;4.57;2.00;;;;;;;;;;6245456;23;20004;-68
2022/06/08 00:31:53;;;;;;;7.13;2.28;;;;;;;;;;6245277;23;20023;-69
2022/06/08 00:34:18;;;;;;;5.43;2.33;;;;;;;;;;6245625;23;20019;-68
2022/06/08 00:36:43;;;;;;;4.15;2.17;;;;;;;;;;6245071;23;20046;-69
2022/06/08 00:39:08;;;;;;;4.85;2.28;;;;;;;;;;6218052;23;20743;-68
2022/06/08 00:41:33;;;;;;;8.25;2.50;;;;;;;;;;6245621;23;20422;-68
2022/06/08 00:44:00;;;;;;;6.00;2.53;;;;;;;;;;6245536;23;20036;-69
2022/06/08 00:46:25;;;;;;;4.47;2.47;;;;;;;;;;6245539;23;19996;-69
2022/06/08 00:48:52;;;;;;;7.53;2.17;;;;;;;;;;6245573;23;20089;-68
2022/06/08 00:51:18;;;;;;;4.75;2.00;;;;;;;;;;6245531;23;20012;-68
2022/06/08 00:53:48;;;;;;;3.40;1.80;;;;;;;;;;6245570;23;20316;-68
2022/06/08 00:56:17;;;;;;;5.55;1.90;;;;;;;;;;6245779;23;20051;-68
2022/06/08 00:58:42;;;;;;;6.63;2.28;;;;;;;;;;6247436;23;20008;-68
2022/06/08 01:01:08;;;;;;;3.28;2.10;;;;;;;;;;6247231;23;20000;-68
2022/06/08 01:03:33;;;;;;;6.88;2.40;;;;;;;;;;6247404;23;20031;-67
2022/06/08 01:06:15;;;;;;;4.68;2.03;;;;;;;;;;6247055;23;20008;-68
2022/06/08 01:08:43;;;;;;;5.57;2.20;;;;;;;;;;6247462;23;19993;-68
2022/06/08 01:11:20;;;;;;;3.72;1.85;;;;;;;;;;6247325;23;20010;-68
2022/06/08 01:13:46;;;;;;;4.15;1.80;;;;;;;;;;6247606;23;19996;-68
2022/06/08 01:16:11;;;;;;;3.33;1.83;;;;;;;;;;6246956;23;20028;-68
2022/06/08 01:18:37;;;;;;;5.00;1.98;;;;;;;;;;6246922;23;20070;-68
2022/06/08 01:21:21;;;;;;;3.53;2.08;;;;;;;;;;6220278;23;19996;-68
2022/06/08 01:23:51;;;;;;;3.70;2.40;;;;;;;;;;6247163;23;20008;-68
2022/06/08 01:26:19;;;;;;;7.63;2.20;;;;;;;;;;6247256;23;20423;-68
2022/06/08 01:28:47;;;;;;;3.78;2.28;;;;;;;;;;6246973;23;20000;-68
2022/06/08 01:31:17;;;;;;;5.25;2.40;;;;;;;;;;6247341;23;20082;-68
2022/06/08 01:34:00;;;;;;;4.25;2.47;;;;;;;;;;6247022;23;19992;-69
2022/06/08 01:36:26;;;;;;;8.15;2.90;;;;;;;;;;6247028;23;20004;-69
2022/06/08 01:38:54;;;;;;;4.78;2.85;;;;;;;;;;6246351;23;20020;-68
2022/06/08 01:41:22;;;;;;;7.22;2.83;;;;;;;;;;6247147;23;20003;-68
2022/06/08 01:43:59;;;;;;;3.35;2.10;;;;;;;;;;6246790;23;20000;-69
2022/06/08 01:46:33;;;;;;;3.53;2.45;;;;;;;;;;6247083;23;20016;-69
2022/06/08 01:49:07;;;;;;;5.60;2.00;;;;;;;;;;6246662;23;20024;-68
2022/06/08 01:51:38;;;;;;;4.15;2.40;;;;;;;;;;6246880;23;20073;-68
2022/06/08 01:54:06;;;;;;;5.32;2.55;;;;;;;;;;6246631;23;20050;-68
2022/06/08 01:56:55;;;;;;;4.03;2.15;;;;;;;;;;6246882;23;20016;-69
2022/06/08 01:59:39;;;;;;;4.28;2.00;;;;;;;;;;6246646;23;20103;-68
2022/06/08 02:02:28;;;;;;;2.85;1.83;;;;;;;;;;6246577;23;20014;-69
2022/06/08 02:05:04;;;;;;;2.47;1.50;;;;;;;;;;6246199;23;20383;-69
2022/06/08 02:07:44;;;;;;;2.53;1.55;;;;;;;;;;6246707;23;20004;-69
2022/06/08 02:10:12;;;;;;;3.92;1.77;;;;;;;;;;6245953;23;20011;-69
2022/06/08 02:12:40;;;;;;;2.17;1.30;;;;;;;;;;6246755;23;20095;-69
2022/06/08 02:15:16;;;;;;;4.93;1.00;;;;;;;;;;6246896;23;19996;-68
2022/06/08 02:17:46;;;;;;;3.10;1.13;;;;;;;;;;6247085;23;20008;-68
2022/06/08 02:20:33;;;;;;;4.35;1.08;;;;;;;;;;6246847;23;20012;-68
2022/06/08 02:23:03;;;;;;;6.30;1.45;;;;;;;;;;6246536;23;20027;-69
2022/06/08 02:25:31;;;;;;;8.35;1.38;;;;;;;;;;6246363;23;20435;-69
2022/06/08 02:28:05;;;;;;;6.38;1.60;;;;;;;;;;6246095;23;20403;-68
2022/06/08 02:30:33;;;;;;;4.07;1.67;;;;;;;;;;6246444;23;20142;-68
2022/06/08 02:36:00;;;;;;;6.45;2.13;;;;;;;;;;6246049;23;20098;-69
2022/06/08 02:38:30;;;;;;;11.02;1.95;;;;;;;;;;6246517;23;20007;-69
2022/06/08 02:40:56;;;;;;;7.50;1.90;;;;;;;;;;6246406;23;20016;-70
2022/06/08 02:43:41;;;;;;;7.40;1.83;;;;;;;;;;6246438;23;20414;-69
2022/06/08 02:46:09;;;;;;;6.78;1.77;;;;;;;;;;6246247;23;20008;-69
2022/06/08 02:48:35;;;;;;;12.02;2.50;;;;;;;;;;6246345;23;20058;-68
2022/06/08 02:51:01;;;;;;;18.10;3.33;;;;;;;;;;6246276;23;20007;-69
2022/06/08 02:53:26;;;;;;;7.35;2.08;;;;;;;;;;6246190;23;20126;-68
2022/06/08 02:55:57;;;;;;;15.85;2.85;;;;;;;;;;6246600;23;20003;-69
2022/06/08 02:58:31;;;;;;;15.45;2.55;;;;;;;;;;6246261;23;20023;-69
2022/06/08 03:01:02;;;;;;;13.38;2.72;;;;;;;;;;6246230;23;20059;-68
2022/06/08 03:03:31;;;;;;;11.57;2.20;;;;;;;;;;6245343;23;20792;-69
2022/06/08 03:06:05;;;;;;;14.00;2.58;;;;;;;;;;6245835;23;20436;-69
2022/06/08 03:08:52;;;;;;;16.95;3.17;;;;;;;;;;6237305;23;20404;-69
2022/06/08 03:11:18;;;;;;;24.90;2.75;;;;;;;;;;6245153;23;20057;-69
2022/06/08 03:14:09;;;;;;;14.32;2.90;;;;;;;;;;6245444;23;20004;-69
2022/06/08 03:16:34;;;;;;;16.55;3.00;;;;;;;;;;6239940;23;20408;-69
2022/06/08 03:18:59;;;;;;;11.57;2.78;;;;;;;;;;6245051;23;20111;-70
2022/06/08 03:21:25;;;;;;;12.52;2.70;;;;;;;;;;6246531;23;20027;-69
2022/06/08 03:23:51;;;;;;;17.20;3.28;;;;;;;;;;6245776;23;20075;-69
2022/06/08 03:26:17;;;;;;;11.00;2.40;;;;;;;;;;6246045;23;20095;-69
2022/06/08 03:28:42;;;;;;;19.35;2.65;;;;;;;;;;6245892;23;19992;-68
2022/06/08 03:31:08;;;;;;;12.75;2.47;;;;;;;;;;6245885;23;20055;-69
2022/06/08 03:33:33;;;;;;;12.48;2.72;;;;;;;;;;6245756;23;20004;-69
2022/06/08 03:35:59;;;;;;;14.48;2.30;;;;;;;;;;6245760;23;19997;-68
2022/06/08 03:38:24;;;;;;;16.92;3.20;;;;;;;;;;6245420;23;20515;-69
2022/06/08 03:40:49;;;;;;;12.82;2.70;;;;;;;;;;6245810;23;20497;-69
2022/06/08 03:43:16;;;;;;;16.38;2.67;;;;;;;;;;6245943;23;20002;-69
2022/06/08 03:45:44;;;;;;;14.32;2.42;;;;;;;;;;6245922;23;19996;-68
2022/06/08 03:48:09;;;;;;;22.95;2.50;;;;;;;;;;6245711;23;20011;-69
2022/06/08 03:50:35;;;;;;;19.88;3.22;;;;;;;;;;6245700;23;19992;-68
2022/06/08 03:53:04;;;;;;;17.48;2.55;;;;;;;;;;6245741;23;19998;-68
2022/06/08 03:55:31;;;;;;;20.77;2.95;;;;;;;;;;6245903;23;20011;-69
2022/06/08 03:57:57;;;;;;;16.50;3.55;;;;;;;;;;6245773;23;20057;-69
2022/06/08 04:00:23;;;;;;;18.45;2.80;;;;;;;;;;6245585;23;20016;-68
2022/06/08 04:02:49;;;;;;;18.38;3.05;;;;;;;;;;6245437;23;20000;-69
2022/06/08 04:05:16;;;;;;;18.38;3.45;;;;;;;;;;6245522;23;20003;-69
2022/06/08 04:07:42;;;;;;;15.75;3.10;;;;;;;;;;6245434;23;19993;-68
2022/06/08 04:10:07;;;;;;;26.40;3.78;;;;;;;;;;6245553;23;20011;-68
2022/06/08 04:12:32;;;;;;;15.85;2.97;;;;;;;;;;6245949;23;20391;-68
2022/06/08 04:14:58;;;;;;;16.02;3.63;;;;;;;;;;6245588;23;20359;-68
2022/06/08 04:17:23;;;;;;;14.05;3.00;;;;;;;;;;6245845;23;20008;-69
2022/06/08 04:19:49;;;;;;;15.70;2.65;;;;;;;;;;6245260;23;20000;-68
2022/06/08 04:22:18;;;;;;;13.20;3.17;;;;;;;;;;6245714;23;20002;-68
2022/06/08 04:24:43;;;;;;;7.57;1.98;;;;;;;;;;6246042;23;20004;-68
2022/06/08 04:27:09;;;;;;;9.68;2.00;;;;;;;;;;6245679;23;20315;-69
2022/06/08 04:29:34;;;;;;;9.82;1.95;;;;;;;;;;6245953;23;20019;-68
2022/06/08 04:31:59;;;;;;;15.18;1.70;;;;;;;;;;6245304;23;20004;-69
2022/06/08 04:34:25;;;;;;;10.95;1.90;;;;;;;;;;6245306;23;20404;-69
2022/06/08 04:36:50;;;;;;;6.47;1.85;;;;;;;;;;6245536;23;19996;-68
2022/06/08 04:39:16;;;;;;;10.25;1.80;;;;;;;;;;6245076;23;20016;-68
2022/06/08 04:41:41;;;;;;;8.65;1.88;;;;;;;;;;6245235;23;19996;-69
2022/06/08 04:44:07;;;;;;;12.00;1.80;;;;;;;;;;6218678;23;19992;-68
2022/06/08 04:46:32;;;;;;;8.38;1.95;;;;;;;;;;6245235;23;20008;-68
2022/06/08 04:48:58;;;;;;;5.78;1.83;;;;;;;;;;6245305;23;19996;-68
2022/06/08 04:51:23;;;;;;;3.80;1.38;;;;;;;;;;6245601;23;19999;-68
2022/06/08 04:53:49;;;;;;;6.20;1.70;;;;;;;;;;6245210;23;20016;-68
2022/06/08 04:56:14;;;;;;;5.28;1.42;;;;;;;;;;6245005;23;20046;-68
2022/06/08 04:58:40;;;;;;;5.65;1.35;;;;;;;;;;6245699;23;19989;-69
2022/06/08 05:01:06;;;;;;;6.20;1.10;;;;;;;;;;6245336;23;20012;-69
2022/06/08 05:03:31;;;;;;;3.92;1.05;;;;;;;;;;6245551;23;20028;-70
2022/06/08 05:05:57;;;;;;;2.35;1.10;;;;;;;;;;6245746;23;20302;-69
2022/06/08 05:08:23;;;;;;;4.88;1.00;;;;;;;;;;6245380;23;20004;-70
2022/06/08 05:10:50;;;;;;;5.68;1.48;;;;;;;;;;6245806;23;20019;-69
2022/06/08 05:13:15;;;;;;;4.65;1.23;;;;;;;;;;6245601;23;19992;-70
2022/06/08 05:15:42;;;;;;;6.68;1.35;;;;;;;;;;6245509;23;20008;-70
2022/06/08 05:18:09;;;;;;;3.90;0.82;;;;;;;;;;6245493;23;20024;-69
2022/06/08 05:20:36;;;;;;;5.20;1.33;;;;;;;;;;6245434;23;20004;-70
2022/06/08 05:23:01;;;;;;;4.85;1.00;;;;;;;;;;6245606;23;20328;-69
2022/06/08 05:25:29;;;;;;;6.05;1.10;;;;;;;;;;6245560;23;20000;-69
2022/06/08 05:27:54;;;;;;;7.57;1.65;;;;;;;;;;6245895;23;20003;-69
2022/06/08 05:30:20;;;;;;;7.22;1.30;;;;;;;;;;6245605;23;20005;-69
2022/06/08 05:32:45;;;;;;;4.32;1.10;;;;;;;;;;6245978;23;19996;-69
2022/06/08 05:35:11;;;;;;;6.13;1.38;;;;;;;;;;6245375;23;20312;-70
2022/06/08 05:37:36;;;;;;;3.97;1.13;;;;;;;;;;6245223;23;20018;-69
2022/06/08 05:40:02;;;;;;;4.70;1.25;;;;;;;;;;6244919;23;20378;-69
2022/06/08 05:42:27;;;;;;;7.85;1.65;;;;;;;;;;6245841;23;20074;-70
2022/06/08 05:44:53;;;;;;;5.35;1.00;;;;;;;;;;6246969;23;20408;-70
2022/06/08 05:47:18;;;;;;;6.57;1.35;;;;;;;;;;6247373;23;20012;-70
2022/06/08 05:49:43;;;;;;;7.82;1.92;;;;;;;;;;6247258;23;19999;-70
2022/06/08 05:52:09;;;;;;;7.03;1.73;;;;;;;;;;6247159;23;20012;-70
2022/06/08 05:54:35;;;;;;;7.72;1.23;;;;;;;;;;6247337;23;19996;-70
2022/06/08 05:57:00;;;;;;;5.25;1.10;;;;;;;;;;6246924;23;19996;-70
2022/06/08 05:59:26;;;;;;;7.00;1.30;;;;;;;;;;6247082;23;20016;-70
2022/06/08 06:01:51;;;;;;;5.10;1.05;;;;;;;;;;6246841;23;20003;-70
2022/06/08 06:04:17;;;;;;;4.88;1.27;;;;;;;;;;6247023;23;19996;-70
2022/06/08 06:06:46;;;;;;;3.47;1.40;;;;;;;;;;6246925;23;20008;-70
2022/06/08 06:09:11;;;;;;;8.55;2.35;;;;;;;;;;6247056;23;19996;-71
2022/06/08 06:11:37;;;;;;;6.43;1.40;;;;;;;;;;6247120;23;20003;-70
2022/06/08 06:14:03;;;;;;;5.05;1.00;;;;;;;;;;6246670;23;20467;-71
2022/06/08 06:16:28;;;;;;;4.93;1.40;;;;;;;;;;6247300;23;20384;-70
2022/06/08 06:18:53;;;;;;;5.97;1.33;;;;;;;;;;6246759;23;20014;-71
2022/06/08 06:21:20;;;;;;;5.57;1.25;;;;;;;;;;6246893;23;20043;-71
2022/06/08 06:23:46;;;;;;;4.00;1.50;;;;;;;;;;6246881;23;20075;-70
2022/06/08 06:26:11;;;;;;;4.03;1.30;;;;;;;;;;6246922;23;20020;-71
2022/06/08 06:28:36;;;;;;;8.70;1.60;;;;;;;;;;6219880;23;20023;-70
2022/06/08 06:31:02;;;;;;;4.82;1.20;;;;;;;;;;6246838;23;20444;-70
2022/06/08 06:33:27;;;;;;;9.23;1.65;;;;;;;;;;6246673;23;20003;-71
2022/06/08 06:35:52;;;;;;;4.80;1.42;;;;;;;;;;6246570;23;20293;-71
2022/06/08 06:38:17;;;;;;;3.65;1.50;;;;;;;;;;6246824;23;20328;-71
2022/06/08 06:40:43;;;;;;;7.40;1.40;;;;;;;;;;6246713;23;20034;-71
2022/06/08 06:43:10;;;;;;;6.07;1.38;;;;;;;;;;6246577;23;20265;-71
2022/06/08 06:45:35;;;;;;;3.63;1.20;;;;;;;;;;6246772;23;19996;-71
2022/06/08 06:48:00;;;;;;;5.22;1.15;;;;;;;;;;6246587;23;19999;-70
2022/06/08 06:50:25;;;;;;;6.05;1.40;;;;;;;;;;6247013;23;20015;-71
2022/06/08 06:52:51;;;;;;;6.55;1.25;;;;;;;;;;6246243;23;20359;-71
2022/06/08 06:55:20;;;;;;;5.60;1.42;;;;;;;;;;6246845;23;20404;-71
2022/06/08 06:57:46;;;;;;;4.75;1.20;;;;;;;;;;6246834;23;20479;-71
2022/06/08 07:00:11;;;;;;;3.93;1.30;;;;;;;;;;6246765;23;20676;-71
2022/06/08 07:02:37;;;;;;;3.22;1.20;;;;;;;;;;6246900;23;20584;-71
2022/06/08 07:05:02;;;;;;;3.28;1.40;;;;;;;;;;6246526;23;20015;-72
2022/06/08 07:07:27;;;;;;;2.90;1.20;;;;;;;;;;6245692;23;20063;-71
2022/06/08 07:09:52;;;;;;;6.25;1.35;;;;;;;;;;6245749;23;20038;-71
2022/06/08 07:12:18;;;;;;;3.88;1.30;;;;;;;;;;6245681;23;20100;-71
2022/06/08 07:14:43;;;;;;;4.50;1.30;;;;;;;;;;6246711;23;19992;-71
2022/06/08 07:17:08;;;;;;;5.67;1.50;;;;;;;;;;6246691;23;20263;-71
2022/06/08 07:19:34;;;;;;;6.47;1.13;;;;;;;;;;6246928;23;20242;-72
2022/06/08 07:21:59;;;;;;;3.47;1.13;;;;;;;;;;6246781;23;20098;-70
2022/06/08 07:24:30;;;;;;;5.80;1.07;;;;;;;;;;6246038;23;20031;-71
2022/06/08 07:26:55;;;;;;;4.72;1.02;;;;;;;;;;6245495;23;20226;-71
2022/06/08 07:29:20;;;;;;;4.13;1.10;;;;;;;;;;6246041;23;20027;-71
2022/06/08 07:31:45;;;;;;;3.77;1.10;;;;;;;;;;6246576;23;19992;-71
2022/06/08 07:34:12;;;;;;;5.40;1.30;;;;;;;;;;6246810;23;20241;-71
2022/06/08 07:36:37;;;;;;;4.15;1.05;;;;;;;;;;6245822;23;20503;-72
2022/06/08 07:39:03;;;;;;;3.78;1.40;;;;;;;;;;6245735;23;20044;-72
2022/06/08 07:41:28;;;;;;;5.95;1.30;;;;;;;;;;6245574;23;20012;-71
2022/06/08 07:43:53;;;;;;;7.13;1.10;;;;;;;;;;6245990;23;20316;-71
2022/06/08 07:46:19;;;;;;;1.70;0.97;;;;;;;;;;6246165;23;19992;-72
2022/06/08 07:51:28;;;;;;;3.72;1.02;;;;;;;;;;6243935;23;20006;-71
2022/06/08 07:53:53;;;;;;;7.65;1.35;;;;;;;;;;6224907;23;20975;-71
2022/06/08 07:56:19;;;;;;;3.90;1.00;;;;;;;;;;6239424;23;19999;-72
2022/06/08 07:58:44;;;;;;;5.05;0.98;;;;;;;;;;6241692;23;19996;-71
2022/06/08 08:01:09;;;;;;;3.72;1.20;;;;;;;;;;6241344;23;20035;-71
2022/06/08 08:03:34;;;;;;;4.68;1.27;;;;;;;;;;6241613;23;20118;-72
2022/06/08 08:06:00;;;;;;;3.20;1.30;;;;;;;;;;6240953;23;20480;-71
2022/06/08 08:08:25;;;;;;;2.75;1.13;;;;;;;;;;6241485;23;20096;-72
2022/06/08 08:10:50;;;;;;;6.68;1.30;;;;;;;;;;6240959;23;20374;-72
2022/06/08 08:13:16;;;;;;;3.67;1.45;;;;;;;;;;6243028;23;20000;-72
2022/06/08 08:15:42;;;;;;;3.33;1.20;;;;;;;;;;6241114;23;20609;-72
2022/06/08 08:18:07;;;;;;;3.20;1.17;;;;;;;;;;6241746;23;20071;-72
2022/06/08 08:20:34;;;;;;;3.25;1.13;;;;;;;;;;6239563;23;20040;-72
2022/06/08 08:22:59;;;;;;;7.78;1.50;;;;;;;;;;6241077;23;20030;-72
2022/06/08 08:25:25;;;;;;;5.15;1.70;;;;;;;;;;6242339;23;20004;-72
2022/06/08 08:27:51;;;;;;;4.22;1.10;;;;;;;;;;6241940;23;20333;-72
2022/06/08 08:30:19;;;;;;;3.55;1.50;;;;;;;;;;6242423;23;20004;-72
2022/06/08 08:32:44;;;;;;;3.00;1.00;;;;;;;;;;6241990;23;19988;-72
2022/06/08 08:35:10;;;;;;;8.90;1.40;;;;;;;;;;6242246;23;19996;-72
2022/06/08 08:37:35;;;;;;;4.20;1.20;;;;;;;;;;6241157;23;20253;-72
2022/06/08 08:40:01;;;;;;;3.40;1.45;;;;;;;;;;6242673;23;20004;-72
2022/06/08 08:42:27;;;;;;;3.88;1.60;;;;;;;;;;6241838;23;20151;-72
2022/06/08 08:44:58;;;;;;;6.78;1.52;;;;;;;;;;6241863;23;20004;-72
2022/06/08 08:47:40;;;;;;;3.72;1.10;;;;;;;;;;6240448;23;20324;-72
2022/06/08 08:50:08;;;;;;;3.67;1.10;;;;;;;;;;6240144;23;20332;-72
2022/06/08 08:52:42;;;;;;;5.93;1.10;;;;;;;;;;6241105;23;20011;-72
2022/06/08 08:55:10;;;;;;;6.65;1.10;;;;;;;;;;6241326;23;20008;-72
2022/06/08 08:57:58;;;;;;;5.80;1.13;;;;;;;;;;6239134;23;20324;-72
2022/06/08 09:00:31;;;;;;;2.92;1.20;;;;;;;;;;6241121;23;20022;-71
2022/06/08 09:03:15;;;;;;;2.58;1.10;;;;;;;;;;6241393;23;20099;-71
2022/06/08 09:05:44;;;;;;;2.45;1.10;;;;;;;;;;6241758;23;20070;-72
2022/06/08 09:08:10;;;;;;;2.90;1.00;;;;;;;;;;6241345;23;20004;-72
2022/06/08 09:10:36;;;;;;;3.78;1.20;;;;;;;;;;6242271;23;20420;-72
2022/06/08 09:13:02;;;;;;;3.42;1.02;;;;;;;;;;6241700;23;19988;-72
2022/06/08 09:15:48;;;;;;;3.03;0.80;;;;;;;;;;6241772;23;20082;-72
2022/06/08 09:18:17;;;;;;;3.15;1.00;;;;;;;;;;6241037;23;20833;-71
2022/06/08 09:20:43;;;;;;;3.17;1.05;;;;;;;;;;6243590;23;20090;-71
2022/06/08 09:23:23;;;;;;;3.42;1.10;;;;;;;;;;6243296;23;20034;-72
2022/06/08 09:26:00;;;;;;;2.55;0.90;;;;;;;;;;6242621;23;20028;-72
2022/06/08 09:28:27;;;;;;;2.05;0.80;;;;;;;;;;6243549;23;20000;-72
2022/06/08 09:30:53;;;;;;;6.75;0.90;;;;;;;;;;6237437;23;20333;-72
2022/06/08 09:33:26;;;;;;;3.55;1.08;;;;;;;;;;6240988;23;20011;-71
2022/06/08 09:35:53;;;;;;;2.97;0.70;;;;;;;;;;6242707;23;20024;-71
2022/06/08 09:38:20;;;;;;;7.55;0.90;;;;;;;;;;6242305;23;20008;-72
2022/06/08 09:41:05;;;;;;;2.55;0.70;;;;;;;;;;6242751;23;20012;-71
2022/06/08 09:43:46;;;;;;;2.88;0.82;;;;;;;;;;6243838;23;20015;-71
2022/06/08 09:46:23;;;;;;;3.85;0.73;;;;;;;;;;6243025;23;20004;-71
2022/06/08 09:51:58;;;;;;;2.15;0.65;;;;;;;;;;6242819;23;20331;-72
2022/06/08 09:54:27;;;;;;;3.22;0.70;;;;;;;;;;6243257;23;20008;-71
2022/06/08 09:57:08;;;;;;;4.78;0.88;;;;;;;;;;6243553;23;20007;-71
2022/06/08 09:59:44;;;;;;;4.18;0.85;;;;;;;;;;6243113;23;20841;-71
2022/06/08 10:02:16;;;;;;;1.85;0.60;;;;;;;;;;6244022;23;20004;-71
2022/06/08 10:04:45;;;;;;;4.43;0.98;;;;;;;;;;6244038;23;20167;-71
2022/06/08 10:07:39;;;;;;;4.13;0.90;;;;;;;;;;6238632;23;20000;-71
2022/06/08 10:10:10;;;;;;;3.30;1.00;;;;;;;;;;6133389;23;20145;-70
2022/06/08 10:12:38;;;;;;;4.97;0.85;;;;;;;;;;6240592;23;20039;-71
2022/06/08 10:15:20;;;;;;;4.95;0.75;;;;;;;;;;6242115;23;20478;-71
2022/06/08 10:17:50;;;;;;;6.03;1.45;;;;;;;;;;6242524;23;20005;-71
2022/06/08 10:20:19;;;;;;;3.67;0.90;;;;;;;;;;6242363;23;20742;-71
2022/06/08 10:22:47;;;;;;;1.90;0.93;;;;;;;;;;6239706;23;20023;-71
2022/06/08 10:25:19;;;;;;;2.47;1.08;;;;;;;;;;6242419;23;20413;-72
2022/06/08 10:27:51;;;;;;;4.32;1.15;;;;;;;;;;6242028;23;20012;-72
2022/06/08 10:30:20;;;;;;;4.07;1.23;;;;;;;;;;6241206;23;20328;-72
2022/06/08 10:32:48;;;;;;;3.60;1.15;;;;;;;;;;6241853;23;20015;-72
2022/06/08 10:35:17;;;;;;;4.28;1.20;;;;;;;;;;6241785;23;20399;-72
2022/06/08 10:37:42;;;;;;;5.38;1.50;;;;;;;;;;6241827;23;20083;-72
2022/06/08 10:40:09;;;;;;;4.93;1.27;;;;;;;;;;6241453;23;20039;-72
2022/06/08 10:42:39;;;;;;;4.80;1.20;;;;;;;;;;6242012;23;19996;-72
2022/06/08 10:45:27;;;;;;;3.00;1.13;;;;;;;;;;6241001;23;20007;-71
2022/06/08 10:48:01;;;;;;;4.38;1.00;;;;;;;;;;6239683;23;20040;-72
2022/06/08 10:50:30;;;;;;;2.38;0.95;;;;;;;;;;6241893;23;20008;-71
2022/06/08 10:54:53;;;;;;;4.10;1.10;;;;;;;;;;6240108;23;20047;-71
2022/06/08 10:55:41;;;;;;;4.07;0.90;;;;;;;;;;6242464;23;20004;-71
2022/06/08 10:58:08;;;;;;;5.00;0.90;;;;;;;;;;6242459;23;20004;-71
2022/06/08 11:00:48;;;;;;;8.27;1.55;;;;;;;;;;6241958;23;20012;-71
2022/06/08 11:03:22;;;;;;;5.03;1.00;;;;;;;;;;6239837;23;20440;-71
2022/06/08 11:05:48;;;;;;;5.07;0.90;;;;;;;;;;6243036;23;20008;-71
2022/06/08 11:08:18;;;;;;;6.32;1.40;;;;;;;;;;6216460;23;20084;-71
2022/06/08 11:13:24;;;;;;;4.72;1.35;;;;;;;;;;6246187;23;20421;-71
2022/06/08 11:15:52;;;;;;;4.30;1.20;;;;;;;;;;6239855;23;20000;-71
2022/06/08 11:18:23;;;;;;;5.00;1.27;;;;;;;;;;6241095;23;20008;-71
2022/06/08 11:20:55;;;;;;;3.97;1.00;;;;;;;;;;6235947;23;20498;-71
2022/06/08 11:23:27;;;;;;;6.00;1.83;;;;;;;;;;6237162;23;19996;-71
2022/06/08 11:26:11;;;;;;;6.28;1.48;;;;;;;;;;6234334;23;20066;-70
2022/06/08 11:28:44;;;;;;;5.32;1.35;;;;;;;;;;6233868;23;19996;-71
2022/06/08 11:31:10;;;;;;;6.32;1.40;;;;;;;;;;6236683;23;20003;-71
2022/06/08 11:33:54;;;;;;;7.88;1.80;;;;;;;;;;6233767;23;20007;-71
2022/06/08 11:36:38;;;;;;;6.45;1.40;;;;;;;;;;6237312;23;20087;-71
2022/06/08 11:39:05;;;;;;;17.02;2.10;;;;;;;;;;6237875;23;20020;-71
2022/06/08 11:41:42;;;;;;;9.38;1.90;;;;;;;;;;6237859;23;20011;-71
2022/06/08 11:44:16;;;;;;;11.40;2.10;;;;;;;;;;6237858;23;20016;-71
2022/06/08 11:46:49;;;;;;;12.30;2.20;;;;;;;;;;6237567;23;20079;-71
2022/06/08 11:49:33;;;;;;;10.70;2.45;;;;;;;;;;6237876;23;20007;-71
2022/06/08 11:51:59;;;;;;;5.55;1.45;;;;;;;;;;6234713;23;20600;-71
2022/06/08 11:54:31;;;;;;;8.45;1.88;;;;;;;;;;6236397;23;20007;-72
2022/06/08 11:57:03;;;;;;;12.75;2.17;;;;;;;;;;6237558;23;20019;-71
2022/06/08 11:59:29;;;;;;;12.60;2.08;;;;;;;;;;6238235;23;20012;-71
2022/06/08 12:01:59;;;;;;;7.20;2.00;;;;;;;;;;6237833;23;20058;-71
2022/06/08 12:04:25;;;;;;;6.55;2.03;;;;;;;;;;6237937;23;19995;-71
2022/06/08 12:06:51;;;;;;;7.97;1.50;;;;;;;;;;6238045;23;20008;-71
2022/06/08 12:09:20;;;;;;;9.05;2.05;;;;;;;;;;6238761;23;20079;-71
2022/06/08 12:11:48;;;;;;;10.85;2.10;;;;;;;;;;6237990;23;20431;-71
2022/06/08 12:14:28;;;;;;;6.53;1.90;;;;;;;;;;6236340;23;20000;-71
2022/06/08 12:16:56;;;;;;;6.38;1.52;;;;;;;;;;6237844;23;20008;-70
2022/06/08 12:19:23;;;;;;;9.65;2.10;;;;;;;;;;6237077;23;20000;-71
2022/06/08 12:21:49;;;;;;;7.70;1.60;;;;;;;;;;6236795;23;20769;-71
2022/06/08 12:24:14;;;;;;;15.90;1.40;;;;;;;;;;6230424;23;19997;-71
2022/06/08 12:26:42;;;;;;;10.63;1.95;;;;;;;;;;6232327;23;20772;-70
2022/06/08 12:29:13;;;;;;;8.65;1.55;;;;;;;;;;6236973;23;20004;-71
2022/06/08 12:31:38;;;;;;;8.13;1.60;;;;;;;;;;6233107;23;19996;-71
2022/06/08 12:34:22;;;;;;;8.60;1.73;;;;;;;;;;6237719;23;20000;-70
2022/06/08 12:36:48;;;;;;;6.18;1.10;;;;;;;;;;6236476;23;20446;-70
2022/06/08 12:39:15;;;;;;;8.13;1.42;;;;;;;;;;6236558;23;20073;-71
2022/06/08 12:41:42;;;;;;;6.15;1.40;;;;;;;;;;6236448;23;20054;-71
2022/06/08 12:44:13;;;;;;;8.15;1.58;;;;;;;;;;6236682;23;19992;-71
2022/06/08 12:46:46;;;;;;;11.90;1.50;;;;;;;;;;6237144;23;20004;-71
2022/06/08 12:49:11;;;;;;;5.60;1.70;;;;;;;;;;6236356;23;20031;-71
2022/06/08 12:51:37;;;;;;;9.52;1.48;;;;;;;;;;6236655;23;19996;-71
2022/06/08 12:54:10;;;;;;;10.07;1.90;;;;;;;;;;6236437;23;20014;-70
2022/06/08 12:56:36;;;;;;;8.23;1.90;;;;;;;;;;6236259;23;20004;-71
2022/06/08 12:59:02;;;;;;;13.32;2.05;;;;;;;;;;6236458;23;20067;-71
2022/06/08 13:01:29;;;;;;;14.32;2.33;;;;;;;;;;6237646;23;20112;-71
2022/06/08 13:03:55;;;;;;;7.30;1.65;;;;;;;;;;6237047;23;20011;-70
2022/06/08 13:06:20;;;;;;;9.35;1.90;;;;;;;;;;6237060;23;19992;-71
2022/06/08 13:08:48;;;;;;;8.35;1.80;;;;;;;;;;6236619;23;20005;-71
2022/06/08 13:11:16;;;;;;;13.32;2.30;;;;;;;;;;6232234;23;20512;-71
2022/06/08 13:13:42;;;;;;;9.40;1.95;;;;;;;;;;6236968;23;20090;-71
2022/06/08 13:16:15;;;;;;;10.45;2.08;;;;;;;;;;6236160;23;20172;-71
2022/06/08 13:18:41;;;;;;;9.90;1.92;;;;;;;;;;6236329;23;20087;-71
2022/06/08 13:21:07;;;;;;;8.88;1.70;;;;;;;;;;6236725;23;20075;-71
2022/06/08 13:23:33;;;;;;;8.10;1.98;;;;;;;;;;6237123;23;20015;-71
2022/06/08 13:25:59;;;;;;;11.10;1.92;;;;;;;;;;6236494;23;20027;-71
2022/06/08 13:28:25;;;;;;;10.55;2.08;;;;;;;;;;6232164;23;19997;-71
2022/06/08 13:30:52;;;;;;;13.20;1.95;;;;;;;;;;6236191;23;20107;-71
2022/06/08 13:36:20;;;;;;;5.97;1.75;;;;;;;;;;6236737;23;20039;-70
2022/06/08 13:38:46;;;;;;;9.40;1.90;;;;;;;;;;6236933;23;20714;-70
2022/06/08 13:41:11;;;;;;;9.07;1.80;;;;;;;;;;6236893;23;20008;-70
2022/06/08 13:43:36;;;;;;;14.10;2.00;;;;;;;;;;6235317;23;20008;-70
2022/06/08 13:46:02;;;;;;;8.63;2.15;;;;;;;;;;6232771;23;20027;-70
2022/06/08 13:48:29;;;;;;;7.80;1.80;;;;;;;;;;6225700;23;20430;-70
2022/06/08 13:50:56;;;;;;;9.70;1.80;;;;;;;;;;6238342;23;20012;-70
2022/06/08 13:53:22;;;;;;;6.75;1.90;;;;;;;;;;6238876;23;20000;-69
2022/06/08 13:55:49;;;;;;;13.10;2.10;;;;;;;;;;6240455;23;20075;-70
2022/06/08 13:58:15;;;;;;;13.80;2.03;;;;;;;;;;6239892;23;20012;-70
2022/06/08 14:00:43;;;;;;;11.13;1.65;;;;;;;;;;6240191;23;20420;-70
2022/06/08 14:03:17;;;;;;;9.57;1.73;;;;;;;;;;6238314;23;20000;-70
2022/06/08 14:14:10;;;;;;;9.85;2.13;;;;;;;;;;6240522;23;20385;-69
2022/06/08 14:16:37;;;;;;;9.10;1.75;;;;;;;;;;6242182;23;20031;-70
2022/06/08 14:19:08;;;;;;;10.45;1.75;;;;;;;;;;6241106;23;20000;-70
2022/06/08 14:21:33;;;;;;;8.30;1.77;;;;;;;;;;6242092;23;20015;-70
2022/06/08 14:24:00;;;;;;;8.43;1.58;;;;;;;;;;6241891;23;20012;-70
2022/06/08 14:26:28;;;;;;;12.38;1.80;;;;;;;;;;6237530;23;20064;-70
2022/06/08 14:28:54;;;;;;;17.60;3.10;;;;;;;;;;6238649;23;19996;-71
2022/06/08 14:31:22;;;;;;;9.82;1.60;;;;;;;;;;6241123;23;20015;-70
2022/06/08 14:33:47;;;;;;;7.18;1.77;;;;;;;;;;6241846;23;20420;-70
2022/06/08 14:36:14;;;;;;;10.32;1.67;;;;;;;;;;6241756;23;20007;-70
2022/06/08 14:38:39;;;;;;;5.72;1.50;;;;;;;;;;6241173;23;20095;-70
2022/06/08 14:41:05;;;;;;;8.02;1.52;;;;;;;;;;6241857;23;20043;-70
2022/06/08 14:43:30;;;;;;;6.35;1.58;;;;;;;;;;6241895;23;20003;-70
2022/06/08 14:45:57;;;;;;;14.00;1.60;;;;;;;;;;6241288;23;20083;-70
2022/06/08 14:48:36;;;;;;;8.65;1.35;;;;;;;;;;6241107;23;20000;-70
2022/06/08 14:51:02;;;;;;;9.45;1.85;;;;;;;;;;6241957;23;20000;-70
2022/06/08 14:53:28;;;;;;;14.40;1.80;;;;;;;;;;6242065;23;20126;-70
2022/06/08 14:58:39;;;;;;;7.35;1.30;;;;;;;;;;6240887;23;20019;-70
2022/06/08 15:01:04;;;;;;;6.65;1.80;;;;;;;;;;6236686;23;20016;-69
2022/06/08 15:03:30;;;;;;;7.10;1.73;;;;;;;;;;6238208;23;20070;-69
2022/06/08 15:05:56;;;;;;;8.38;1.38;;;;;;;;;;6241453;23;20392;-69
2022/06/08 15:08:21;;;;;;;6.90;2.08;;;;;;;;;;6241532;23;20635;-69
2022/06/08 15:13:32;;;;;;;13.40;1.58;;;;;;;;;;6237128;23;20022;-69
2022/06/08 15:16:00;;;;;;;11.32;2.10;;;;;;;;;;6241760;23;20781;-70